sensor_id;sensor_type;location;lat;lon;timestamp;temperature;humidity
28773;DHT22;15925;51.222;5.678;2023-11-22T00:00:32;6.60;99.90
28773;DHT22;15925;51.222;5.678;2023-11-22T00:02:59;6.70;99.90
28773;DHT22;15925;51.222;5.678;2023-11-22T00:05:25;6.60;99.90
28773;DHT22;15925;51.222;5.678;2023-11-22T00:07:50;6.60;99.90
28773;DHT22;15925;51.222;5.678;2023-11-22T00:10:17;6.50;99.90
28773;DHT22;15925;51.222;5.678;2023-11-22T00:12:43;6.40;99.90
28773;DHT22;15925;51.222;5.678;2023-11-22T00:15:09;6.40;99.90
28773;DHT22;15925;51.222;5.678;2023-11-22T00:17:37;6.40;99.90
28773;DHT22;15925;51.222;5.678;2023-11-22T00:20:03;6.30;99.90
28773;DHT22;15925;51.222;5.678;2023-11-22T00:22:34;6.30;99.90
28773;DHT22;15925;51.222;5.678;2023-11-22T00:25:01;6.30;99.90
28773;DHT22;15925;51.222;5.678;2023-11-22T00:27:36;6.20;99.90
28773;DHT22;15925;51.222;5.678;2023-11-22T00:30:05;6.10;99.90
28773;DHT22;15925;51.222;5.678;2023-11-22T00:32:31;6.30;99.90
28773;DHT22;15925;51.222;5.678;2023-11-22T00:34:57;6.20;99.90
28773;DHT22;15925;51.222;5.678;2023-11-22T00:37:23;6.30;99.90
28773;DHT22;15925;51.222;5.678;2023-11-22T00:39:49;6.30;99.90
28773;DHT22;15925;51.222;5.678;2023-11-22T00:42:14;6.30;99.90
28773;DHT22;15925;51.222;5.678;2023-11-22T00:44:40;6.40;99.90
28773;DHT22;15925;51.222;5.678;2023-11-22T00:47:06;6.40;99.90
28773;DHT22;15925;51.222;5.678;2023-11-22T00:49:32;6.30;99.90
28773;DHT22;15925;51.222;5.678;2023-11-22T00:51:58;6.30;99.90
28773;DHT22;15925;51.222;5.678;2023-11-22T00:54:24;6.30;99.90
28773;DHT22;15925;51.222;5.678;2023-11-22T00:56:51;6.30;99.90
28773;DHT22;15925;51.222;5.678;2023-11-22T00:59:17;6.10;99.90
28773;DHT22;15925;51.222;5.678;2023-11-22T01:01:45;6.10;99.90
28773;DHT22;15925;51.222;5.678;2023-11-22T01:04:11;6.10;99.90
28773;DHT22;15925;51.222;5.678;2023-11-22T01:06:37;5.90;99.90
28773;DHT22;15925;51.222;5.678;2023-11-22T01:09:04;5.80;99.90
28773;DHT22;15925;51.222;5.678;2023-11-22T01:11:30;6.00;99.90
28773;DHT22;15925;51.222;5.678;2023-11-22T01:13:58;6.00;99.90
28773;DHT22;15925;51.222;5.678;2023-11-22T01:16:24;5.90;99.90
28773;DHT22;15925;51.222;5.678;2023-11-22T01:18:50;5.60;99.90
28773;DHT22;15925;51.222;5.678;2023-11-22T01:21:18;5.60;99.90
28773;DHT22;15925;51.222;5.678;2023-11-22T01:23:45;5.50;99.90
28773;DHT22;15925;51.222;5.678;2023-11-22T01:26:13;5.40;99.90
28773;DHT22;15925;51.222;5.678;2023-11-22T01:28:39;5.30;99.90
28773;DHT22;15925;51.222;5.678;2023-11-22T01:31:11;5.30;99.90
28773;DHT22;15925;51.222;5.678;2023-11-22T01:33:37;5.30;99.90
28773;DHT22;15925;51.222;5.678;2023-11-22T01:36:03;5.30;99.90
28773;DHT22;15925;51.222;5.678;2023-11-22T01:38:28;5.30;99.90
28773;DHT22;15925;51.222;5.678;2023-11-22T01:40:55;5.30;99.90
28773;DHT22;15925;51.222;5.678;2023-11-22T01:43:27;5.30;99.90
28773;DHT22;15925;51.222;5.678;2023-11-22T01:45:54;5.30;99.90
28773;DHT22;15925;51.222;5.678;2023-11-22T01:48:20;5.20;99.90
28773;DHT22;15925;51.222;5.678;2023-11-22T01:50:46;5.20;99.90
28773;DHT22;15925;51.222;5.678;2023-11-22T01:53:14;5.20;99.90
28773;DHT22;15925;51.222;5.678;2023-11-22T01:55:43;5.20;99.90
28773;DHT22;15925;51.222;5.678;2023-11-22T01:58:10;5.30;99.90
28773;DHT22;15925;51.222;5.678;2023-11-22T02:00:43;5.30;99.90
28773;DHT22;15925;51.222;5.678;2023-11-22T02:03:11;5.30;99.90
28773;DHT22;15925;51.222;5.678;2023-11-22T02:05:40;5.30;99.90
28773;DHT22;15925;51.222;5.678;2023-11-22T02:08:11;5.30;99.90
28773;DHT22;15925;51.222;5.678;2023-11-22T02:10:37;5.30;99.90
28773;DHT22;15925;51.222;5.678;2023-11-22T02:13:06;5.40;99.90
28773;DHT22;15925;51.222;5.678;2023-11-22T02:15:36;5.30;99.90
28773;DHT22;15925;51.222;5.678;2023-11-22T02:18:02;5.40;99.90
28773;DHT22;15925;51.222;5.678;2023-11-22T02:20:28;5.40;99.90
28773;DHT22;15925;51.222;5.678;2023-11-22T02:22:54;5.40;99.90
28773;DHT22;15925;51.222;5.678;2023-11-22T02:25:21;5.40;99.90
28773;DHT22;15925;51.222;5.678;2023-11-22T02:27:47;5.40;99.90
28773;DHT22;15925;51.222;5.678;2023-11-22T02:30:13;5.40;99.90
28773;DHT22;15925;51.222;5.678;2023-11-22T02:32:39;5.50;99.90
28773;DHT22;15925;51.222;5.678;2023-11-22T02:35:05;5.50;99.90
28773;DHT22;15925;51.222;5.678;2023-11-22T02:37:34;5.50;99.90
28773;DHT22;15925;51.222;5.678;2023-11-22T02:42:44;5.60;99.90
28773;DHT22;15925;51.222;5.678;2023-11-22T02:45:11;5.60;99.90
28773;DHT22;15925;51.222;5.678;2023-11-22T02:47:36;5.50;99.90
28773;DHT22;15925;51.222;5.678;2023-11-22T02:50:03;5.70;99.90
28773;DHT22;15925;51.222;5.678;2023-11-22T02:52:31;5.60;99.90
28773;DHT22;15925;51.222;5.678;2023-11-22T02:54:57;5.70;99.90
28773;DHT22;15925;51.222;5.678;2023-11-22T02:57:24;5.70;99.90
28773;DHT22;15925;51.222;5.678;2023-11-22T02:59:50;5.70;99.90
28773;DHT22;15925;51.222;5.678;2023-11-22T03:02:16;5.70;99.90
28773;DHT22;15925;51.222;5.678;2023-11-22T03:04:44;5.70;99.90
28773;DHT22;15925;51.222;5.678;2023-11-22T03:07:10;5.80;99.90
28773;DHT22;15925;51.222;5.678;2023-11-22T03:09:36;5.70;99.90
28773;DHT22;15925;51.222;5.678;2023-11-22T03:12:02;5.80;99.90
28773;DHT22;15925;51.222;5.678;2023-11-22T03:14:28;5.70;99.90
28773;DHT22;15925;51.222;5.678;2023-11-22T03:16:55;5.60;99.90
28773;DHT22;15925;51.222;5.678;2023-11-22T03:19:21;5.60;99.90
28773;DHT22;15925;51.222;5.678;2023-11-22T03:21:46;5.70;99.90
28773;DHT22;15925;51.222;5.678;2023-11-22T03:24:12;5.80;99.90
28773;DHT22;15925;51.222;5.678;2023-11-22T03:26:38;5.70;99.90
28773;DHT22;15925;51.222;5.678;2023-11-22T03:29:05;5.60;99.90
28773;DHT22;15925;51.222;5.678;2023-11-22T03:31:31;5.70;99.90
28773;DHT22;15925;51.222;5.678;2023-11-22T03:33:57;5.60;99.90
28773;DHT22;15925;51.222;5.678;2023-11-22T03:36:23;5.50;99.90
28773;DHT22;15925;51.222;5.678;2023-11-22T03:38:50;5.60;99.90
28773;DHT22;15925;51.222;5.678;2023-11-22T03:41:16;5.60;99.90
28773;DHT22;15925;51.222;5.678;2023-11-22T03:43:46;5.60;99.90
28773;DHT22;15925;51.222;5.678;2023-11-22T03:46:12;5.50;99.90
28773;DHT22;15925;51.222;5.678;2023-11-22T03:48:39;5.50;99.90
28773;DHT22;15925;51.222;5.678;2023-11-22T03:51:05;5.60;99.90
28773;DHT22;15925;51.222;5.678;2023-11-22T03:53:32;5.60;99.90
28773;DHT22;15925;51.222;5.678;2023-11-22T03:55:58;5.50;99.90
28773;DHT22;15925;51.222;5.678;2023-11-22T03:58:24;5.50;99.90
28773;DHT22;15925;51.222;5.678;2023-11-22T04:00:51;5.50;99.90
28773;DHT22;15925;51.222;5.678;2023-11-22T04:03:18;5.50;99.90
28773;DHT22;15925;51.222;5.678;2023-11-22T04:05:44;5.50;99.90
28773;DHT22;15925;51.222;5.678;2023-11-22T04:08:10;5.40;99.90
28773;DHT22;15925;51.222;5.678;2023-11-22T04:10:36;5.50;99.90
28773;DHT22;15925;51.222;5.678;2023-11-22T04:13:02;5.50;99.90
28773;DHT22;15925;51.222;5.678;2023-11-22T04:15:28;5.60;99.90
28773;DHT22;15925;51.222;5.678;2023-11-22T04:17:53;5.50;99.90
28773;DHT22;15925;51.222;5.678;2023-11-22T04:20:22;5.50;99.90
28773;DHT22;15925;51.222;5.678;2023-11-22T04:22:48;5.50;99.90
28773;DHT22;15925;51.222;5.678;2023-11-22T04:25:14;5.60;99.90
28773;DHT22;15925;51.222;5.678;2023-11-22T04:27:40;5.60;99.90
28773;DHT22;15925;51.222;5.678;2023-11-22T04:30:07;5.50;99.90
28773;DHT22;15925;51.222;5.678;2023-11-22T04:32:40;5.60;99.90
28773;DHT22;15925;51.222;5.678;2023-11-22T04:35:11;5.50;99.90
28773;DHT22;15925;51.222;5.678;2023-11-22T04:37:37;5.50;99.90
28773;DHT22;15925;51.222;5.678;2023-11-22T04:40:03;5.40;99.90
28773;DHT22;15925;51.222;5.678;2023-11-22T04:42:34;5.50;99.90
28773;DHT22;15925;51.222;5.678;2023-11-22T04:45:00;5.50;99.90
28773;DHT22;15925;51.222;5.678;2023-11-22T04:47:25;5.50;99.90
28773;DHT22;15925;51.222;5.678;2023-11-22T04:49:51;5.60;99.90
28773;DHT22;15925;51.222;5.678;2023-11-22T04:52:17;5.40;99.90
28773;DHT22;15925;51.222;5.678;2023-11-22T04:54:42;5.50;99.90
28773;DHT22;15925;51.222;5.678;2023-11-22T04:57:08;5.60;99.90
28773;DHT22;15925;51.222;5.678;2023-11-22T04:59:34;5.60;99.90
28773;DHT22;15925;51.222;5.678;2023-11-22T05:02:00;5.60;99.90
28773;DHT22;15925;51.222;5.678;2023-11-22T05:04:26;5.70;99.90
28773;DHT22;15925;51.222;5.678;2023-11-22T05:06:53;5.70;99.90
28773;DHT22;15925;51.222;5.678;2023-11-22T05:09:19;5.80;99.90
28773;DHT22;15925;51.222;5.678;2023-11-22T05:11:45;5.80;99.90
28773;DHT22;15925;51.222;5.678;2023-11-22T05:14:11;5.90;99.90
28773;DHT22;15925;51.222;5.678;2023-11-22T05:16:38;5.80;99.90
28773;DHT22;15925;51.222;5.678;2023-11-22T05:19:05;5.90;99.90
28773;DHT22;15925;51.222;5.678;2023-11-22T05:21:31;5.90;99.90
28773;DHT22;15925;51.222;5.678;2023-11-22T05:23:58;5.90;99.90
28773;DHT22;15925;51.222;5.678;2023-11-22T05:26:24;5.80;99.90
28773;DHT22;15925;51.222;5.678;2023-11-22T05:28:50;5.80;99.90
28773;DHT22;15925;51.222;5.678;2023-11-22T05:31:16;5.70;99.90
28773;DHT22;15925;51.222;5.678;2023-11-22T05:33:42;5.80;99.90
28773;DHT22;15925;51.222;5.678;2023-11-22T05:36:08;5.70;99.90
28773;DHT22;15925;51.222;5.678;2023-11-22T05:38:34;5.80;99.90
28773;DHT22;15925;51.222;5.678;2023-11-22T05:41:01;5.90;99.90
28773;DHT22;15925;51.222;5.678;2023-11-22T05:43:27;5.90;99.90
28773;DHT22;15925;51.222;5.678;2023-11-22T05:45:53;6.00;99.90
28773;DHT22;15925;51.222;5.678;2023-11-22T05:48:21;5.90;99.90
28773;DHT22;15925;51.222;5.678;2023-11-22T05:50:47;5.80;99.90
28773;DHT22;15925;51.222;5.678;2023-11-22T05:53:13;5.80;99.90
28773;DHT22;15925;51.222;5.678;2023-11-22T05:55:48;5.90;99.90
28773;DHT22;15925;51.222;5.678;2023-11-22T05:58:14;5.90;99.90
28773;DHT22;15925;51.222;5.678;2023-11-22T06:00:45;6.00;99.90
28773;DHT22;15925;51.222;5.678;2023-11-22T06:03:11;6.00;99.90
28773;DHT22;15925;51.222;5.678;2023-11-22T06:05:38;6.00;99.90
28773;DHT22;15925;51.222;5.678;2023-11-22T06:08:04;6.00;99.90
28773;DHT22;15925;51.222;5.678;2023-11-22T06:10:30;6.00;99.90
28773;DHT22;15925;51.222;5.678;2023-11-22T06:12:56;6.10;99.90
28773;DHT22;15925;51.222;5.678;2023-11-22T06:15:21;6.10;99.90
28773;DHT22;15925;51.222;5.678;2023-11-22T06:17:48;6.20;99.90
28773;DHT22;15925;51.222;5.678;2023-11-22T06:20:17;6.20;99.90
28773;DHT22;15925;51.222;5.678;2023-11-22T06:22:43;6.20;99.90
28773;DHT22;15925;51.222;5.678;2023-11-22T06:25:09;6.10;99.90
28773;DHT22;15925;51.222;5.678;2023-11-22T06:27:36;6.00;99.90
28773;DHT22;15925;51.222;5.678;2023-11-22T06:30:02;6.00;99.90
28773;DHT22;15925;51.222;5.678;2023-11-22T06:32:28;6.10;99.90
28773;DHT22;15925;51.222;5.678;2023-11-22T06:34:54;6.10;99.90
28773;DHT22;15925;51.222;5.678;2023-11-22T06:37:20;6.20;99.90
28773;DHT22;15925;51.222;5.678;2023-11-22T06:39:46;6.20;99.90
28773;DHT22;15925;51.222;5.678;2023-11-22T06:42:12;6.20;99.90
28773;DHT22;15925;51.222;5.678;2023-11-22T06:44:39;6.20;99.90
28773;DHT22;15925;51.222;5.678;2023-11-22T06:47:05;6.20;99.90
28773;DHT22;15925;51.222;5.678;2023-11-22T06:49:33;6.20;99.90
28773;DHT22;15925;51.222;5.678;2023-11-22T06:51:59;6.20;99.90
28773;DHT22;15925;51.222;5.678;2023-11-22T06:54:25;6.10;99.90
28773;DHT22;15925;51.222;5.678;2023-11-22T06:56:51;6.00;99.90
28773;DHT22;15925;51.222;5.678;2023-11-22T06:59:17;5.80;99.90
28773;DHT22;15925;51.222;5.678;2023-11-22T07:01:44;5.90;99.90
28773;DHT22;15925;51.222;5.678;2023-11-22T07:04:10;5.90;99.90
28773;DHT22;15925;51.222;5.678;2023-11-22T07:06:37;5.80;99.90
28773;DHT22;15925;51.222;5.678;2023-11-22T07:09:06;5.80;99.90
28773;DHT22;15925;51.222;5.678;2023-11-22T07:11:35;5.90;99.90
28773;DHT22;15925;51.222;5.678;2023-11-22T07:14:03;5.70;99.90
28773;DHT22;15925;51.222;5.678;2023-11-22T07:16:30;5.80;99.90
28773;DHT22;15925;51.222;5.678;2023-11-22T07:18:56;6.00;99.90
28773;DHT22;15925;51.222;5.678;2023-11-22T07:21:23;6.10;99.90
28773;DHT22;15925;51.222;5.678;2023-11-22T07:23:49;6.20;99.90
28773;DHT22;15925;51.222;5.678;2023-11-22T07:26:14;6.20;99.90
28773;DHT22;15925;51.222;5.678;2023-11-22T07:28:41;6.20;99.90
28773;DHT22;15925;51.222;5.678;2023-11-22T07:31:10;6.30;99.90
28773;DHT22;15925;51.222;5.678;2023-11-22T07:33:38;6.30;99.90
28773;DHT22;15925;51.222;5.678;2023-11-22T07:36:05;6.40;99.90
28773;DHT22;15925;51.222;5.678;2023-11-22T07:38:31;6.40;99.90
28773;DHT22;15925;51.222;5.678;2023-11-22T07:40:58;6.50;99.90
28773;DHT22;15925;51.222;5.678;2023-11-22T07:43:23;6.50;99.90
28773;DHT22;15925;51.222;5.678;2023-11-22T07:45:51;6.50;99.90
28773;DHT22;15925;51.222;5.678;2023-11-22T07:48:17;6.50;99.90
28773;DHT22;15925;51.222;5.678;2023-11-22T07:50:43;6.60;99.90
28773;DHT22;15925;51.222;5.678;2023-11-22T07:53:12;6.50;99.90
28773;DHT22;15925;51.222;5.678;2023-11-22T07:55:39;6.60;99.90
28773;DHT22;15925;51.222;5.678;2023-11-22T07:58:04;6.60;99.90
28773;DHT22;15925;51.222;5.678;2023-11-22T08:00:33;6.60;99.90
28773;DHT22;15925;51.222;5.678;2023-11-22T08:03:00;6.70;99.90
28773;DHT22;15925;51.222;5.678;2023-11-22T08:05:32;6.60;99.90
28773;DHT22;15925;51.222;5.678;2023-11-22T08:08:05;6.70;99.90
28773;DHT22;15925;51.222;5.678;2023-11-22T08:10:35;6.70;99.90
28773;DHT22;15925;51.222;5.678;2023-11-22T08:13:01;6.80;99.90
28773;DHT22;15925;51.222;5.678;2023-11-22T08:15:27;6.70;99.90
28773;DHT22;15925;51.222;5.678;2023-11-22T08:17:54;6.60;99.90
28773;DHT22;15925;51.222;5.678;2023-11-22T08:20:20;6.60;99.90
28773;DHT22;15925;51.222;5.678;2023-11-22T08:22:47;6.60;99.90
28773;DHT22;15925;51.222;5.678;2023-11-22T08:25:15;6.50;99.90
28773;DHT22;15925;51.222;5.678;2023-11-22T08:27:41;6.60;99.90
28773;DHT22;15925;51.222;5.678;2023-11-22T08:30:08;6.60;99.90
28773;DHT22;15925;51.222;5.678;2023-11-22T08:32:39;6.60;99.90
28773;DHT22;15925;51.222;5.678;2023-11-22T08:35:07;6.60;99.90
28773;DHT22;15925;51.222;5.678;2023-11-22T08:37:34;6.60;99.90
28773;DHT22;15925;51.222;5.678;2023-11-22T08:40:01;6.70;99.90
28773;DHT22;15925;51.222;5.678;2023-11-22T08:42:26;6.70;99.90
28773;DHT22;15925;51.222;5.678;2023-11-22T08:44:52;6.80;99.90
28773;DHT22;15925;51.222;5.678;2023-11-22T08:47:18;6.80;99.90
28773;DHT22;15925;51.222;5.678;2023-11-22T08:49:43;6.90;99.90
28773;DHT22;15925;51.222;5.678;2023-11-22T08:52:09;6.80;99.90
28773;DHT22;15925;51.222;5.678;2023-11-22T08:54:35;6.80;99.90
28773;DHT22;15925;51.222;5.678;2023-11-22T08:57:01;6.90;99.90
28773;DHT22;15925;51.222;5.678;2023-11-22T08:59:26;6.90;99.90
28773;DHT22;15925;51.222;5.678;2023-11-22T09:01:52;6.90;99.90
28773;DHT22;15925;51.222;5.678;2023-11-22T09:04:19;7.00;99.90
28773;DHT22;15925;51.222;5.678;2023-11-22T09:06:45;7.00;99.90
28773;DHT22;15925;51.222;5.678;2023-11-22T09:09:13;7.00;99.90
28773;DHT22;15925;51.222;5.678;2023-11-22T09:11:41;7.00;99.90
28773;DHT22;15925;51.222;5.678;2023-11-22T09:14:07;7.00;99.90
28773;DHT22;15925;51.222;5.678;2023-11-22T09:16:37;7.10;99.90
28773;DHT22;15925;51.222;5.678;2023-11-22T09:19:04;7.00;99.90
28773;DHT22;15925;51.222;5.678;2023-11-22T09:21:32;7.00;99.90
28773;DHT22;15925;51.222;5.678;2023-11-22T09:23:58;7.10;99.90
28773;DHT22;15925;51.222;5.678;2023-11-22T09:26:24;7.10;99.90
28773;DHT22;15925;51.222;5.678;2023-11-22T09:28:50;7.10;99.90
28773;DHT22;15925;51.222;5.678;2023-11-22T09:31:16;7.20;99.90
28773;DHT22;15925;51.222;5.678;2023-11-22T09:33:46;7.20;99.90
28773;DHT22;15925;51.222;5.678;2023-11-22T09:36:12;7.20;99.90
28773;DHT22;15925;51.222;5.678;2023-11-22T09:38:38;7.20;99.90
28773;DHT22;15925;51.222;5.678;2023-11-22T09:41:05;7.30;99.90
28773;DHT22;15925;51.222;5.678;2023-11-22T09:43:33;7.30;99.90
28773;DHT22;15925;51.222;5.678;2023-11-22T09:45:59;7.30;99.90
28773;DHT22;15925;51.222;5.678;2023-11-22T09:48:26;7.30;99.90
28773;DHT22;15925;51.222;5.678;2023-11-22T09:56:07;7.40;99.90
28773;DHT22;15925;51.222;5.678;2023-11-22T09:58:34;7.40;99.90
28773;DHT22;15925;51.222;5.678;2023-11-22T10:01:00;7.40;99.90
28773;DHT22;15925;51.222;5.678;2023-11-22T10:03:28;7.50;99.90
28773;DHT22;15925;51.222;5.678;2023-11-22T10:05:58;7.40;99.90
28773;DHT22;15925;51.222;5.678;2023-11-22T10:08:29;7.50;99.90
28773;DHT22;15925;51.222;5.678;2023-11-22T10:10:58;7.50;99.90
28773;DHT22;15925;51.222;5.678;2023-11-22T10:13:26;7.50;99.90
28773;DHT22;15925;51.222;5.678;2023-11-22T10:15:52;7.60;99.90
28773;DHT22;15925;51.222;5.678;2023-11-22T10:18:19;7.60;99.90
28773;DHT22;15925;51.222;5.678;2023-11-22T10:20:47;7.70;99.90
28773;DHT22;15925;51.222;5.678;2023-11-22T10:23:15;7.70;99.90
28773;DHT22;15925;51.222;5.678;2023-11-22T10:25:54;7.80;99.90
28773;DHT22;15925;51.222;5.678;2023-11-22T10:28:22;7.80;99.90
28773;DHT22;15925;51.222;5.678;2023-11-22T10:30:50;7.80;99.90
28773;DHT22;15925;51.222;5.678;2023-11-22T10:33:17;7.80;99.90
28773;DHT22;15925;51.222;5.678;2023-11-22T10:35:50;7.80;99.90
28773;DHT22;15925;51.222;5.678;2023-11-22T10:38:20;7.90;99.90
28773;DHT22;15925;51.222;5.678;2023-11-22T10:40:47;8.00;99.90
28773;DHT22;15925;51.222;5.678;2023-11-22T10:43:20;8.00;99.90
28773;DHT22;15925;51.222;5.678;2023-11-22T10:45:53;8.00;99.90
28773;DHT22;15925;51.222;5.678;2023-11-22T10:48:34;8.10;99.90
28773;DHT22;15925;51.222;5.678;2023-11-22T10:51:04;8.10;99.90
28773;DHT22;15925;51.222;5.678;2023-11-22T10:53:35;7.80;99.90
28773;DHT22;15925;51.222;5.678;2023-11-22T10:56:16;7.60;99.90
28773;DHT22;15925;51.222;5.678;2023-11-22T10:58:56;7.40;99.90
28773;DHT22;15925;51.222;5.678;2023-11-22T11:01:24;7.50;99.90
28773;DHT22;15925;51.222;5.678;2023-11-22T11:04:01;7.60;99.90
28773;DHT22;15925;51.222;5.678;2023-11-22T11:06:33;7.40;99.90
28773;DHT22;15925;51.222;5.678;2023-11-22T11:09:01;7.60;99.90
28773;DHT22;15925;51.222;5.678;2023-11-22T11:11:38;7.80;99.90
28773;DHT22;15925;51.222;5.678;2023-11-22T11:14:08;7.90;99.90
28773;DHT22;15925;51.222;5.678;2023-11-22T11:16:38;8.00;99.90
28773;DHT22;15925;51.222;5.678;2023-11-22T11:19:07;8.00;99.90
28773;DHT22;15925;51.222;5.678;2023-11-22T11:21:35;8.10;99.90
28773;DHT22;15925;51.222;5.678;2023-11-22T11:24:01;8.20;99.90
28773;DHT22;15925;51.222;5.678;2023-11-22T11:26:32;8.20;99.90
28773;DHT22;15925;51.222;5.678;2023-11-22T11:29:01;8.30;99.90
28773;DHT22;15925;51.222;5.678;2023-11-22T11:31:33;8.40;99.90
28773;DHT22;15925;51.222;5.678;2023-11-22T11:34:05;8.40;99.90
28773;DHT22;15925;51.222;5.678;2023-11-22T11:36:32;8.40;99.90
28773;DHT22;15925;51.222;5.678;2023-11-22T11:38:59;8.40;99.90
28773;DHT22;15925;51.222;5.678;2023-11-22T11:41:28;8.50;99.90
28773;DHT22;15925;51.222;5.678;2023-11-22T11:43:56;8.40;99.90
28773;DHT22;15925;51.222;5.678;2023-11-22T11:46:22;8.50;99.90
28773;DHT22;15925;51.222;5.678;2023-11-22T11:48:52;8.60;99.90
28773;DHT22;15925;51.222;5.678;2023-11-22T11:51:22;8.60;99.90
28773;DHT22;15925;51.222;5.678;2023-11-22T11:53:48;8.50;99.90
28773;DHT22;15925;51.222;5.678;2023-11-22T11:56:15;8.50;99.90
28773;DHT22;15925;51.222;5.678;2023-11-22T11:58:50;8.50;99.90
28773;DHT22;15925;51.222;5.678;2023-11-22T12:01:16;8.50;99.90
28773;DHT22;15925;51.222;5.678;2023-11-22T12:03:42;8.60;99.90
28773;DHT22;15925;51.222;5.678;2023-11-22T12:06:09;8.50;99.90
28773;DHT22;15925;51.222;5.678;2023-11-22T12:08:35;8.70;99.90
28773;DHT22;15925;51.222;5.678;2023-11-22T12:11:04;8.70;99.90
28773;DHT22;15925;51.222;5.678;2023-11-22T12:13:32;8.60;99.90
28773;DHT22;15925;51.222;5.678;2023-11-22T12:15:58;8.60;99.90
28773;DHT22;15925;51.222;5.678;2023-11-22T12:18:24;8.70;99.90
28773;DHT22;15925;51.222;5.678;2023-11-22T12:20:57;8.70;99.90
28773;DHT22;15925;51.222;5.678;2023-11-22T12:23:25;8.70;99.90
28773;DHT22;15925;51.222;5.678;2023-11-22T12:26:01;8.60;99.90
28773;DHT22;15925;51.222;5.678;2023-11-22T12:28:30;8.60;99.90
28773;DHT22;15925;51.222;5.678;2023-11-22T12:31:12;8.60;99.90
28773;DHT22;15925;51.222;5.678;2023-11-22T12:33:40;8.60;99.90
28773;DHT22;15925;51.222;5.678;2023-11-22T12:36:08;8.70;99.90
28773;DHT22;15925;51.222;5.678;2023-11-22T12:38:42;8.60;99.90
28773;DHT22;15925;51.222;5.678;2023-11-22T12:41:07;8.70;99.90
28773;DHT22;15925;51.222;5.678;2023-11-22T12:43:34;8.60;99.90
28773;DHT22;15925;51.222;5.678;2023-11-22T12:46:05;8.70;99.90
28773;DHT22;15925;51.222;5.678;2023-11-22T12:48:39;8.60;99.90
28773;DHT22;15925;51.222;5.678;2023-11-22T12:51:15;8.60;99.90
28773;DHT22;15925;51.222;5.678;2023-11-22T12:53:45;8.60;99.90
28773;DHT22;15925;51.222;5.678;2023-11-22T12:56:11;8.40;99.90
28773;DHT22;15925;51.222;5.678;2023-11-22T12:58:37;8.60;99.90
28773;DHT22;15925;51.222;5.678;2023-11-22T13:01:03;8.40;99.90
28773;DHT22;15925;51.222;5.678;2023-11-22T13:03:29;8.30;99.90
28773;DHT22;15925;51.222;5.678;2023-11-22T13:05:55;8.40;99.90
28773;DHT22;15925;51.222;5.678;2023-11-22T13:08:21;8.40;99.90
28773;DHT22;15925;51.222;5.678;2023-11-22T13:10:55;8.50;99.90
28773;DHT22;15925;51.222;5.678;2023-11-22T13:13:23;8.20;99.90
28773;DHT22;15925;51.222;5.678;2023-11-22T13:15:49;7.80;99.90
28773;DHT22;15925;51.222;5.678;2023-11-22T13:18:19;7.80;99.90
28773;DHT22;15925;51.222;5.678;2023-11-22T13:20:45;7.90;99.90
28773;DHT22;15925;51.222;5.678;2023-11-22T13:23:11;8.00;99.90
28773;DHT22;15925;51.222;5.678;2023-11-22T13:25:39;7.90;99.90
28773;DHT22;15925;51.222;5.678;2023-11-22T13:28:05;7.70;99.90
28773;DHT22;15925;51.222;5.678;2023-11-22T13:30:32;7.70;99.90
28773;DHT22;15925;51.222;5.678;2023-11-22T13:32:58;7.70;99.90
28773;DHT22;15925;51.222;5.678;2023-11-22T13:35:25;7.60;99.90
28773;DHT22;15925;51.222;5.678;2023-11-22T13:37:52;7.50;99.90
28773;DHT22;15925;51.222;5.678;2023-11-22T13:40:19;7.40;99.90
28773;DHT22;15925;51.222;5.678;2023-11-22T13:42:49;7.50;99.90
28773;DHT22;15925;51.222;5.678;2023-11-22T13:45:18;7.40;99.90
28773;DHT22;15925;51.222;5.678;2023-11-22T13:47:44;7.20;99.90
28773;DHT22;15925;51.222;5.678;2023-11-22T13:50:12;7.30;99.90
28773;DHT22;15925;51.222;5.678;2023-11-22T13:52:41;7.40;99.90
28773;DHT22;15925;51.222;5.678;2023-11-22T13:55:07;7.30;99.90
28773;DHT22;15925;51.222;5.678;2023-11-22T13:57:36;7.30;99.90
28773;DHT22;15925;51.222;5.678;2023-11-22T14:00:06;7.40;99.90
28773;DHT22;15925;51.222;5.678;2023-11-22T14:02:38;7.60;99.90
28773;DHT22;15925;51.222;5.678;2023-11-22T14:05:03;7.60;99.90
28773;DHT22;15925;51.222;5.678;2023-11-22T14:07:34;7.40;99.90
28773;DHT22;15925;51.222;5.678;2023-11-22T14:10:01;7.40;99.90
28773;DHT22;15925;51.222;5.678;2023-11-22T14:12:29;7.50;99.90
28773;DHT22;15925;51.222;5.678;2023-11-22T14:14:56;7.60;99.90
28773;DHT22;15925;51.222;5.678;2023-11-22T14:17:22;7.70;99.90
28773;DHT22;15925;51.222;5.678;2023-11-22T14:19:49;7.70;99.90
28773;DHT22;15925;51.222;5.678;2023-11-22T14:22:15;7.70;99.90
28773;DHT22;15925;51.222;5.678;2023-11-22T14:24:42;7.50;99.90
28773;DHT22;15925;51.222;5.678;2023-11-22T14:27:10;7.50;99.90
28773;DHT22;15925;51.222;5.678;2023-11-22T14:29:37;7.30;99.90
28773;DHT22;15925;51.222;5.678;2023-11-22T14:32:03;7.40;99.90
28773;DHT22;15925;51.222;5.678;2023-11-22T14:34:28;7.50;99.90
28773;DHT22;15925;51.222;5.678;2023-11-22T14:36:54;7.60;99.90
28773;DHT22;15925;51.222;5.678;2023-11-22T14:39:20;7.60;99.90
28773;DHT22;15925;51.222;5.678;2023-11-22T14:41:46;7.60;99.90
28773;DHT22;15925;51.222;5.678;2023-11-22T14:44:12;7.70;99.90
28773;DHT22;15925;51.222;5.678;2023-11-22T14:46:38;7.70;99.90
28773;DHT22;15925;51.222;5.678;2023-11-22T14:49:04;7.70;99.90
28773;DHT22;15925;51.222;5.678;2023-11-22T14:51:30;7.60;99.90
28773;DHT22;15925;51.222;5.678;2023-11-22T14:53:56;7.50;99.90
28773;DHT22;15925;51.222;5.678;2023-11-22T14:56:22;7.40;99.90
28773;DHT22;15925;51.222;5.678;2023-11-22T14:58:48;7.40;99.90
28773;DHT22;15925;51.222;5.678;2023-11-22T15:01:22;7.30;99.90
28773;DHT22;15925;51.222;5.678;2023-11-22T15:03:52;7.10;99.90
28773;DHT22;15925;51.222;5.678;2023-11-22T15:06:22;7.30;99.90
28773;DHT22;15925;51.222;5.678;2023-11-22T15:08:48;7.30;99.90
28773;DHT22;15925;51.222;5.678;2023-11-22T15:11:15;7.30;99.90
28773;DHT22;15925;51.222;5.678;2023-11-22T15:13:44;7.20;99.90
28773;DHT22;15925;51.222;5.678;2023-11-22T15:16:10;7.00;99.90
28773;DHT22;15925;51.222;5.678;2023-11-22T15:18:42;6.90;99.90
28773;DHT22;15925;51.222;5.678;2023-11-22T15:21:08;7.00;99.90
28773;DHT22;15925;51.222;5.678;2023-11-22T15:23:33;7.00;99.90
28773;DHT22;15925;51.222;5.678;2023-11-22T15:25:59;7.10;99.90
28773;DHT22;15925;51.222;5.678;2023-11-22T15:28:26;7.00;99.90
28773;DHT22;15925;51.222;5.678;2023-11-22T15:30:52;7.20;99.90
28773;DHT22;15925;51.222;5.678;2023-11-22T15:33:26;7.20;99.90
28773;DHT22;15925;51.222;5.678;2023-11-22T15:35:52;7.20;99.90
28773;DHT22;15925;51.222;5.678;2023-11-22T15:38:19;7.30;99.90
28773;DHT22;15925;51.222;5.678;2023-11-22T15:40:45;7.30;99.90
28773;DHT22;15925;51.222;5.678;2023-11-22T15:43:10;7.20;99.90
28773;DHT22;15925;51.222;5.678;2023-11-22T15:45:37;7.30;99.90
28773;DHT22;15925;51.222;5.678;2023-11-22T15:48:05;7.40;99.90
28773;DHT22;15925;51.222;5.678;2023-11-22T15:50:31;7.40;99.90
28773;DHT22;15925;51.222;5.678;2023-11-22T15:52:58;7.40;99.90